Dubois, Illinois
Current Conditions -  °F | °C
As of 3:15 PM on Saturday 22 Nov 2014 (Local Time) from KMVN Reporting Station
Overcast Overcast  
Wind Chill: 55°   Ceiling: 10000
Heat Index: 55°   Visibility: 10mi
Dew Point: 46°   Wind: 15mph
Humidity: 72%   Direction: 190°S
Pressure: 30.03"   Gusts: NA
Location:  38.2577°N, 89.2025°W
Report Text: KMVN 222115Z AUTO 19013KT 10SM OVC100 13/08 A3003 RMK AO1
Loading
Personal Weather Stations






























Interactive Weather Map New forecast layout! Learn more

10-Day Weather Forecast

Advertisements
Track Severe Weather on mobile